sensor_id;sensor_type;location;lat;lon;timestamp;pressure;altitude;pressure_sealevel;temperature;humidity
72685;BME280;61365;52.162;4.500;2022-10-15T00:00:50;100678.97;;;12.95;90.44
72685;BME280;61365;52.162;4.500;2022-10-15T00:03:16;100672.84;;;12.95;90.32
72685;BME280;61365;52.162;4.500;2022-10-15T00:05:43;100670.25;;;12.90;90.59
72685;BME280;61365;52.162;4.500;2022-10-15T00:08:10;100671.94;;;12.94;90.24
72685;BME280;61365;52.162;4.500;2022-10-15T00:10:37;100666.66;;;12.97;90.59
72685;BME280;61365;52.162;4.500;2022-10-15T00:13:04;100669.25;;;13.00;90.08
72685;BME280;61365;52.162;4.500;2022-10-15T00:15:31;100670.97;;;13.00;90.79
72685;BME280;61365;52.162;4.500;2022-10-15T00:17:57;100669.34;;;12.91;90.79
72685;BME280;61365;52.162;4.500;2022-10-15T00:20:24;100671.19;;;12.86;90.74
72685;BME280;61365;52.162;4.500;2022-10-15T00:22:50;100677.19;;;12.97;90.80
72685;BME280;61365;52.162;4.500;2022-10-15T00:25:16;100671.03;;;12.98;90.25
72685;BME280;61365;52.162;4.500;2022-10-15T00:27:43;100673.75;;;12.90;90.60
72685;BME280;61365;52.162;4.500;2022-10-15T00:30:10;100666.69;;;12.94;91.00
72685;BME280;61365;52.162;4.500;2022-10-15T00:32:36;100658.00;;;12.87;90.86
72685;BME280;61365;52.162;4.500;2022-10-15T00:35:03;100662.38;;;12.88;91.37
72685;BME280;61365;52.162;4.500;2022-10-15T00:37:30;100658.81;;;12.93;91.16
72685;BME280;61365;52.162;4.500;2022-10-15T00:39:56;100656.97;;;12.99;90.79
72685;BME280;61365;52.162;4.500;2022-10-15T00:42:22;100657.78;;;13.03;91.15
72685;BME280;61365;52.162;4.500;2022-10-15T00:44:52;100655.28;;;12.94;90.98
72685;BME280;61365;52.162;4.500;2022-10-15T00:47:27;100652.66;;;12.92;91.48
72685;BME280;61365;52.162;4.500;2022-10-15T00:50:10;100650.00;;;12.95;91.26
72685;BME280;61365;52.162;4.500;2022-10-15T00:55:33;100661.34;;;13.00;91.21
72685;BME280;61365;52.162;4.500;2022-10-15T00:58:08;100655.09;;;13.07;91.27
72685;BME280;61365;52.162;4.500;2022-10-15T01:00:40;100655.09;;;13.06;91.00
72685;BME280;61365;52.162;4.500;2022-10-15T01:03:07;100652.38;;;13.12;90.85
72685;BME280;61365;52.162;4.500;2022-10-15T01:05:36;100653.13;;;13.24;90.71
72685;BME280;61365;52.162;4.500;2022-10-15T01:08:04;100646.03;;;13.27;90.43
72685;BME280;61365;52.162;4.500;2022-10-15T01:10:36;100652.25;;;13.20;90.87
72685;BME280;61365;52.162;4.500;2022-10-15T01:13:41;100651.38;;;13.21;91.47
72685;BME280;61365;52.162;4.500;2022-10-15T01:16:34;100648.78;;;13.19;91.56
72685;BME280;61365;52.162;4.500;2022-10-15T01:22:12;100641.81;;;13.14;91.95
72685;BME280;61365;52.162;4.500;2022-10-15T01:27:44;100626.03;;;13.12;92.29
72685;BME280;61365;52.162;4.500;2022-10-15T01:30:41;100628.84;;;13.00;92.32
72685;BME280;61365;52.162;4.500;2022-10-15T01:33:24;100625.22;;;13.07;92.86
72685;BME280;61365;52.162;4.500;2022-10-15T01:36:15;100622.53;;;13.12;92.12
72685;BME280;61365;52.162;4.500;2022-10-15T01:42:00;100620.84;;;13.07;92.12
72685;BME280;61365;52.162;4.500;2022-10-15T01:44:34;100610.22;;;13.12;92.08
72685;BME280;61365;52.162;4.500;2022-10-15T01:47:18;100606.72;;;13.12;92.23
72685;BME280;61365;52.162;4.500;2022-10-15T01:49:51;100612.94;;;13.07;92.31
72685;BME280;61365;52.162;4.500;2022-10-15T01:52:23;100604.19;;;13.04;92.30
72685;BME280;61365;52.162;4.500;2022-10-15T01:54:53;100603.34;;;13.03;92.85
72685;BME280;61365;52.162;4.500;2022-10-15T01:57:22;100616.53;;;13.02;92.93
72685;BME280;61365;52.162;4.500;2022-10-15T01:59:51;100603.53;;;12.89;93.40
72685;BME280;61365;52.162;4.500;2022-10-15T02:02:19;100605.41;;;12.83;93.85
72685;BME280;61365;52.162;4.500;2022-10-15T02:04:45;100597.53;;;12.80;94.12
72685;BME280;61365;52.162;4.500;2022-10-15T02:07:15;100582.78;;;12.68;94.90
72685;BME280;61365;52.162;4.500;2022-10-15T02:13:13;100596.06;;;12.60;95.80
72685;BME280;61365;52.162;4.500;2022-10-15T02:19:17;100577.69;;;12.57;95.83
72685;BME280;61365;52.162;4.500;2022-10-15T02:22:00;100578.63;;;12.50;96.11
72685;BME280;61365;52.162;4.500;2022-10-15T02:24:40;100577.75;;;12.49;96.57
72685;BME280;61365;52.162;4.500;2022-10-15T02:27:15;100577.75;;;12.51;96.54
72685;BME280;61365;52.162;4.500;2022-10-15T02:29:44;100573.44;;;12.45;96.97
72685;BME280;61365;52.162;4.500;2022-10-15T02:32:16;100571.66;;;12.45;96.98
72685;BME280;61365;52.162;4.500;2022-10-15T02:34:45;100563.81;;;12.44;96.80
72685;BME280;61365;52.162;4.500;2022-10-15T02:37:13;100558.59;;;12.41;97.29
72685;BME280;61365;52.162;4.500;2022-10-15T02:39:42;100554.22;;;12.38;97.71
72685;BME280;61365;52.162;4.500;2022-10-15T02:42:09;100553.34;;;12.38;97.80
72685;BME280;61365;52.162;4.500;2022-10-15T02:44:35;100555.97;;;12.38;97.89
72685;BME280;61365;52.162;4.500;2022-10-15T02:47:02;100551.56;;;12.40;97.69
72685;BME280;61365;52.162;4.500;2022-10-15T02:49:28;100550.72;;;12.36;97.79
72685;BME280;61365;52.162;4.500;2022-10-15T02:51:55;100548.16;;;12.33;98.37
72685;BME280;61365;52.162;4.500;2022-10-15T02:54:21;100546.38;;;12.35;98.42
72685;BME280;61365;52.162;4.500;2022-10-15T02:56:47;100545.38;;;12.42;98.45
72685;BME280;61365;52.162;4.500;2022-10-15T02:59:14;100548.91;;;12.41;98.02
72685;BME280;61365;52.162;4.500;2022-10-15T03:01:40;100538.38;;;12.43;98.38
72685;BME280;61365;52.162;4.500;2022-10-15T03:04:06;100549.81;;;12.40;98.32
72685;BME280;61365;52.162;4.500;2022-10-15T03:06:33;100545.47;;;12.38;98.11
72685;BME280;61365;52.162;4.500;2022-10-15T03:08:59;100538.38;;;12.41;98.00
72685;BME280;61365;52.162;4.500;2022-10-15T03:11:25;100538.34;;;12.46;98.22
72685;BME280;61365;52.162;4.500;2022-10-15T03:13:52;100533.16;;;12.38;98.09
72685;BME280;61365;52.162;4.500;2022-10-15T03:16:18;100531.34;;;12.45;98.07
72685;BME280;61365;52.162;4.500;2022-10-15T03:18:45;100529.53;;;12.49;98.07
72685;BME280;61365;52.162;4.500;2022-10-15T03:21:11;100534.91;;;12.39;97.81
72685;BME280;61365;52.162;4.500;2022-10-15T03:23:37;100531.38;;;12.40;98.47
72685;BME280;61365;52.162;4.500;2022-10-15T03:26:04;100531.34;;;12.43;97.70
72685;BME280;61365;52.162;4.500;2022-10-15T03:28:31;100538.38;;;12.43;98.09
72685;BME280;61365;52.162;4.500;2022-10-15T03:30:57;100531.31;;;12.46;98.37
72685;BME280;61365;52.162;4.500;2022-10-15T03:33:23;100528.75;;;12.40;98.65
72685;BME280;61365;52.162;4.500;2022-10-15T03:35:50;100522.59;;;12.43;98.70
72685;BME280;61365;52.162;4.500;2022-10-15T03:38:17;100526.16;;;12.37;98.81
72685;BME280;61365;52.162;4.500;2022-10-15T03:40:46;100529.75;;;12.31;98.95
72685;BME280;61365;52.162;4.500;2022-10-15T03:43:13;100530.53;;;12.38;99.38
72685;BME280;61365;52.162;4.500;2022-10-15T03:45:39;100524.44;;;12.35;99.32
72685;BME280;61365;52.162;4.500;2022-10-15T03:48:06;100530.56;;;12.37;99.29
72685;BME280;61365;52.162;4.500;2022-10-15T03:50:32;100535.84;;;12.35;99.36
72685;BME280;61365;52.162;4.500;2022-10-15T03:53:02;100535.00;;;12.31;99.41
72685;BME280;61365;52.162;4.500;2022-10-15T03:55:30;100538.56;;;12.27;99.36
72685;BME280;61365;52.162;4.500;2022-10-15T03:57:57;100534.28;;;12.19;99.48
72685;BME280;61365;52.162;4.500;2022-10-15T04:00:23;100547.44;;;12.19;100.00
72685;BME280;61365;52.162;4.500;2022-10-15T04:02:49;100547.34;;;12.26;100.00
72685;BME280;61365;52.162;4.500;2022-10-15T04:05:16;100541.22;;;12.24;99.97
72685;BME280;61365;52.162;4.500;2022-10-15T04:07:42;100551.78;;;12.23;99.79
72685;BME280;61365;52.162;4.500;2022-10-15T04:10:08;100549.13;;;12.24;99.76
72685;BME280;61365;52.162;4.500;2022-10-15T04:12:36;100545.56;;;12.30;100.00
72685;BME280;61365;52.162;4.500;2022-10-15T04:15:02;100559.63;;;12.27;99.73
72685;BME280;61365;52.162;4.500;2022-10-15T04:17:29;100550.84;;;12.28;99.84
72685;BME280;61365;52.162;4.500;2022-10-15T04:19:55;100555.09;;;12.37;99.71
72685;BME280;61365;52.162;4.500;2022-10-15T04:22:21;100546.28;;;12.41;99.58
72685;BME280;61365;52.162;4.500;2022-10-15T04:24:48;100546.28;;;12.43;99.20
72685;BME280;61365;52.162;4.500;2022-10-15T04:27:14;100542.72;;;12.47;99.12
72685;BME280;61365;52.162;4.500;2022-10-15T04:29:41;100544.38;;;12.53;98.79
72685;BME280;61365;52.162;4.500;2022-10-15T04:32:11;100539.94;;;12.56;98.50
72685;BME280;61365;52.162;4.500;2022-10-15T04:34:39;100543.47;;;12.57;98.54
72685;BME280;61365;52.162;4.500;2022-10-15T04:37:06;100538.16;;;12.58;98.04
72685;BME280;61365;52.162;4.500;2022-10-15T04:39:32;100538.94;;;12.65;97.85
72685;BME280;61365;52.162;4.500;2022-10-15T04:41:58;100532.03;;;12.58;97.78
72685;BME280;61365;52.162;4.500;2022-10-15T04:44:25;100536.41;;;12.57;97.92
72685;BME280;61365;52.162;4.500;2022-10-15T04:46:51;100538.22;;;12.54;98.04
72685;BME280;61365;52.162;4.500;2022-10-15T04:49:17;100522.47;;;12.49;98.36
72685;BME280;61365;52.162;4.500;2022-10-15T04:51:44;100530.50;;;12.43;98.56
72685;BME280;61365;52.162;4.500;2022-10-15T04:54:10;100520.88;;;12.37;98.87
72685;BME280;61365;52.162;4.500;2022-10-15T04:56:37;100529.56;;;12.47;99.11
72685;BME280;61365;52.162;4.500;2022-10-15T04:59:06;100527.91;;;12.40;98.85
72685;BME280;61365;52.162;4.500;2022-10-15T05:01:33;100525.25;;;12.38;99.19
72685;BME280;61365;52.162;4.500;2022-10-15T05:03:59;100524.41;;;12.36;99.45
72685;BME280;61365;52.162;4.500;2022-10-15T05:06:26;100527.13;;;12.31;99.56
72685;BME280;61365;52.162;4.500;2022-10-15T05:08:52;100535.00;;;12.33;99.93
72685;BME280;61365;52.162;4.500;2022-10-15T05:11:24;100527.13;;;12.31;99.92
72685;BME280;61365;52.162;4.500;2022-10-15T05:13:54;100527.03;;;12.36;99.89
72685;BME280;61365;52.162;4.500;2022-10-15T05:16:24;100523.47;;;12.42;99.54
72685;BME280;61365;52.162;4.500;2022-10-15T05:18:56;100525.16;;;12.48;99.69
72685;BME280;61365;52.162;4.500;2022-10-15T05:21:30;100526.91;;;12.49;99.01
72685;BME280;61365;52.162;4.500;2022-10-15T05:23:58;100527.59;;;12.61;98.91
72685;BME280;61365;52.162;4.500;2022-10-15T05:26:27;100521.50;;;12.58;98.49
72685;BME280;61365;52.162;4.500;2022-10-15T05:28:56;100518.75;;;12.64;98.38
72685;BME280;61365;52.162;4.500;2022-10-15T05:31:25;100516.25;;;12.58;98.34
72685;BME280;61365;52.162;4.500;2022-10-15T05:33:53;100509.06;;;12.68;98.26
72685;BME280;61365;52.162;4.500;2022-10-15T05:36:23;100518.88;;;12.58;98.52
72685;BME280;61365;52.162;4.500;2022-10-15T05:38:56;100512.66;;;12.64;98.27
72685;BME280;61365;52.162;4.500;2022-10-15T05:41:25;100510.94;;;12.59;98.15
72685;BME280;61365;52.162;4.500;2022-10-15T05:43:54;100514.44;;;12.61;98.44
72685;BME280;61365;52.162;4.500;2022-10-15T05:46:22;100514.50;;;12.55;98.56
72685;BME280;61365;52.162;4.500;2022-10-15T05:48:51;100513.63;;;12.56;98.34
72685;BME280;61365;52.162;4.500;2022-10-15T05:51:19;100514.50;;;12.55;98.65
72685;BME280;61365;52.162;4.500;2022-10-15T05:53:46;100514.47;;;12.58;98.72
72685;BME280;61365;52.162;4.500;2022-10-15T05:56:13;100511.97;;;12.49;99.22
72685;BME280;61365;52.162;4.500;2022-10-15T05:58:41;100518.09;;;12.50;99.10
72685;BME280;61365;52.162;4.500;2022-10-15T06:01:09;100512.84;;;12.50;98.91
72685;BME280;61365;52.162;4.500;2022-10-15T06:03:38;100512.84;;;12.50;99.08
72685;BME280;61365;52.162;4.500;2022-10-15T06:06:19;100508.44;;;12.52;99.10
72685;BME280;61365;52.162;4.500;2022-10-15T06:08:50;100501.38;;;12.52;98.67
72685;BME280;61365;52.162;4.500;2022-10-15T06:11:17;100512.81;;;12.53;98.95
72685;BME280;61365;52.162;4.500;2022-10-15T06:13:45;100508.47;;;12.49;99.09
72685;BME280;61365;52.162;4.500;2022-10-15T06:16:14;100510.22;;;12.50;98.93
72685;BME280;61365;52.162;4.500;2022-10-15T06:18:41;100511.94;;;12.51;98.72
72685;BME280;61365;52.162;4.500;2022-10-15T06:21:09;100505.91;;;12.42;99.28
72685;BME280;61365;52.162;4.500;2022-10-15T06:23:37;100506.00;;;12.36;99.75
72685;BME280;61365;52.162;4.500;2022-10-15T06:26:07;100501.63;;;12.37;100.00
72685;BME280;61365;52.162;4.500;2022-10-15T06:28:37;100495.69;;;12.22;100.00
72685;BME280;61365;52.162;4.500;2022-10-15T06:31:05;100490.31;;;12.30;100.00
72685;BME280;61365;52.162;4.500;2022-10-15T06:33:32;100490.34;;;12.27;100.00
72685;BME280;61365;52.162;4.500;2022-10-15T06:36:01;100498.25;;;12.25;100.00
72685;BME280;61365;52.162;4.500;2022-10-15T06:38:32;100492.16;;;12.22;100.00
72685;BME280;61365;52.162;4.500;2022-10-15T06:40:59;100492.91;;;12.31;100.00
72685;BME280;61365;52.162;4.500;2022-10-15T06:43:28;100499.06;;;12.32;99.91
72685;BME280;61365;52.162;4.500;2022-10-15T06:45:57;100505.00;;;12.46;99.40
72685;BME280;61365;52.162;4.500;2022-10-15T06:48:25;100513.78;;;12.45;99.20
72685;BME280;61365;52.162;4.500;2022-10-15T06:50:51;100510.28;;;12.45;98.95
72685;BME280;61365;52.162;4.500;2022-10-15T06:53:17;100514.69;;;12.43;98.82
72685;BME280;61365;52.162;4.500;2022-10-15T06:55:44;100510.25;;;12.48;98.83
72685;BME280;61365;52.162;4.500;2022-10-15T06:58:10;100514.50;;;12.57;98.79
72685;BME280;61365;52.162;4.500;2022-10-15T07:00:37;100510.13;;;12.56;97.90
72685;BME280;61365;52.162;4.500;2022-10-15T07:03:04;100510.13;;;12.54;97.99
72685;BME280;61365;52.162;4.500;2022-10-15T07:05:33;100504.06;;;12.51;98.57
72685;BME280;61365;52.162;4.500;2022-10-15T07:08:00;100503.09;;;12.58;98.58
72685;BME280;61365;52.162;4.500;2022-10-15T07:10:26;100502.22;;;12.56;98.31
72685;BME280;61365;52.162;4.500;2022-10-15T07:12:53;100499.50;;;12.62;98.47
72685;BME280;61365;52.162;4.500;2022-10-15T07:15:20;100503.91;;;12.61;98.03
72685;BME280;61365;52.162;4.500;2022-10-15T07:17:52;100494.28;;;12.59;97.98
72685;BME280;61365;52.162;4.500;2022-10-15T07:20:22;100500.34;;;12.64;98.17
72685;BME280;61365;52.162;4.500;2022-10-15T07:22:48;100499.44;;;12.65;98.03
72685;BME280;61365;52.162;4.500;2022-10-15T07:25:15;100502.28;;;12.51;98.81
72685;BME280;61365;52.162;4.500;2022-10-15T07:27:42;100492.44;;;12.66;98.78
72685;BME280;61365;52.162;4.500;2022-10-15T07:30:09;100492.28;;;12.75;98.49
72685;BME280;61365;52.162;4.500;2022-10-15T07:32:35;100486.91;;;12.83;98.39
72685;BME280;61365;52.162;4.500;2022-10-15T07:35:02;100491.94;;;12.97;97.24
72685;BME280;61365;52.162;4.500;2022-10-15T07:37:30;100488.53;;;12.91;97.37
72685;BME280;61365;52.162;4.500;2022-10-15T07:39:56;100485.03;;;12.89;96.99
72685;BME280;61365;52.162;4.500;2022-10-15T07:42:22;100476.06;;;13.01;96.82
72685;BME280;61365;52.162;4.500;2022-10-15T07:44:49;100477.84;;;12.99;97.03
72685;BME280;61365;52.162;4.500;2022-10-15T07:47:15;100479.69;;;12.96;96.96
72685;BME280;61365;52.162;4.500;2022-10-15T07:49:42;100489.19;;;13.03;96.76
72685;BME280;61365;52.162;4.500;2022-10-15T07:52:09;100491.16;;;12.91;96.88
72685;BME280;61365;52.162;4.500;2022-10-15T07:54:36;100481.44;;;12.95;97.33
72685;BME280;61365;52.162;4.500;2022-10-15T07:57:03;100480.81;;;12.79;97.54
72685;BME280;61365;52.162;4.500;2022-10-15T07:59:32;100474.69;;;12.79;98.28
72685;BME280;61365;52.162;4.500;2022-10-15T08:01:59;100484.06;;;12.97;97.40
72685;BME280;61365;52.162;4.500;2022-10-15T08:04:25;100478.88;;;12.89;97.57
72685;BME280;61365;52.162;4.500;2022-10-15T08:06:52;100485.22;;;12.79;97.78
72685;BME280;61365;52.162;4.500;2022-10-15T08:09:18;100498.28;;;12.85;97.53
72685;BME280;61365;52.162;4.500;2022-10-15T08:11:45;100487.66;;;12.89;97.04
72685;BME280;61365;52.162;4.500;2022-10-15T08:14:11;100482.13;;;13.05;96.56
72685;BME280;61365;52.162;4.500;2022-10-15T08:16:37;100483.75;;;13.14;95.39
72685;BME280;61365;52.162;4.500;2022-10-15T08:19:04;100474.19;;;13.08;95.62
72685;BME280;61365;52.162;4.500;2022-10-15T08:21:30;100470.66;;;13.09;95.55
72685;BME280;61365;52.162;4.500;2022-10-15T08:23:57;100466.19;;;13.13;95.23
72685;BME280;61365;52.162;4.500;2022-10-15T08:26:23;100462.00;;;13.01;95.24
72685;BME280;61365;52.162;4.500;2022-10-15T08:28:51;100461.13;;;13.02;95.64
72685;BME280;61365;52.162;4.500;2022-10-15T08:31:17;100461.28;;;12.93;95.61
72685;BME280;61365;52.162;4.500;2022-10-15T08:33:44;100459.28;;;13.07;95.21
72685;BME280;61365;52.162;4.500;2022-10-15T08:36:11;100458.19;;;13.20;94.99
72685;BME280;61365;52.162;4.500;2022-10-15T08:38:37;100458.13;;;13.22;94.59
72685;BME280;61365;52.162;4.500;2022-10-15T08:41:10;100453.50;;;13.35;93.97
72685;BME280;61365;52.162;4.500;2022-10-15T08:43:56;100454.13;;;13.51;92.84
72685;BME280;61365;52.162;4.500;2022-10-15T08:46:31;100462.19;;;13.42;93.32
72685;BME280;61365;52.162;4.500;2022-10-15T08:49:32;100461.13;;;13.52;92.38
72685;BME280;61365;52.162;4.500;2022-10-15T08:52:17;100463.66;;;13.57;92.01
72685;BME280;61365;52.162;4.500;2022-10-15T08:54:50;100459.97;;;13.67;92.36
72685;BME280;61365;52.162;4.500;2022-10-15T09:00:16;100452.56;;;13.86;90.79
72685;BME280;61365;52.162;4.500;2022-10-15T09:06:25;100441.25;;;13.79;91.03
72685;BME280;61365;52.162;4.500;2022-10-15T09:15:21;100439.50;;;13.80;93.18
72685;BME280;61365;52.162;4.500;2022-10-15T09:17:51;100442.28;;;13.72;93.04
72685;BME280;61365;52.162;4.500;2022-10-15T09:20:24;100444.19;;;13.64;94.42
72685;BME280;61365;52.162;4.500;2022-10-15T09:23:01;100442.19;;;13.75;94.39
72685;BME280;61365;52.162;4.500;2022-10-15T09:25:34;100436.69;;;13.88;93.31
72685;BME280;61365;52.162;4.500;2022-10-15T09:28:16;100435.75;;;13.90;93.10
72685;BME280;61365;52.162;4.500;2022-10-15T09:30:47;100438.09;;;13.62;94.09
72685;BME280;61365;52.162;4.500;2022-10-15T09:33:39;100437.09;;;13.68;94.55
72685;BME280;61365;52.162;4.500;2022-10-15T09:36:35;100419.53;;;13.66;94.35
72685;BME280;61365;52.162;4.500;2022-10-15T09:42:29;100419.25;;;13.80;94.92
72685;BME280;61365;52.162;4.500;2022-10-15T09:45:04;100420.91;;;13.85;95.29
72685;BME280;61365;52.162;4.500;2022-10-15T09:47:33;100428.72;;;13.89;95.55
72685;BME280;61365;52.162;4.500;2022-10-15T09:50:03;100422.78;;;13.81;96.26
72685;BME280;61365;52.162;4.500;2022-10-15T09:58:23;100411.97;;;13.92;97.02
72685;BME280;61365;52.162;4.500;2022-10-15T10:01:02;100404.97;;;13.91;96.78
72685;BME280;61365;52.162;4.500;2022-10-15T10:03:32;100412.81;;;13.94;96.74
72685;BME280;61365;52.162;4.500;2022-10-15T10:06:09;100398.38;;;13.70;97.79
72685;BME280;61365;52.162;4.500;2022-10-15T10:08:40;100404.38;;;13.76;98.21
72685;BME280;61365;52.162;4.500;2022-10-15T10:11:16;100403.16;;;13.93;98.05
72685;BME280;61365;52.162;4.500;2022-10-15T10:13:58;100415.41;;;13.95;97.56
72685;BME280;61365;52.162;4.500;2022-10-15T10:16:26;100411.22;;;13.87;98.46
72685;BME280;61365;52.162;4.500;2022-10-15T10:19:14;100410.34;;;13.86;98.58
72685;BME280;61365;52.162;4.500;2022-10-15T10:21:42;100412.91;;;13.89;98.73
72685;BME280;61365;52.162;4.500;2022-10-15T10:24:29;100416.72;;;13.76;99.20
72685;BME280;61365;52.162;4.500;2022-10-15T10:26:57;100412.16;;;13.82;100.00
72685;BME280;61365;52.162;4.500;2022-10-15T10:29:26;100419.78;;;13.98;99.91
72685;BME280;61365;52.162;4.500;2022-10-15T10:31:54;100414.19;;;13.70;100.00
72685;BME280;61365;52.162;4.500;2022-10-15T10:34:27;100414.88;;;13.79;100.00
72685;BME280;61365;52.162;4.500;2022-10-15T10:36:56;100413.06;;;13.83;100.00
72685;BME280;61365;52.162;4.500;2022-10-15T10:39:30;100413.91;;;13.84;100.00
72685;BME280;61365;52.162;4.500;2022-10-15T10:42:03;100411.69;;;14.04;100.00
72685;BME280;61365;52.162;4.500;2022-10-15T10:49:36;100419.59;;;14.06;99.44
72685;BME280;61365;52.162;4.500;2022-10-15T10:55:16;100408.66;;;14.23;98.47
72685;BME280;61365;52.162;4.500;2022-10-15T10:57:52;100401.91;;;14.11;98.14
72685;BME280;61365;52.162;4.500;2022-10-15T11:00:37;100406.94;;;14.22;98.17
72685;BME280;61365;52.162;4.500;2022-10-15T11:06:00;100395.94;;;14.40;97.02
72685;BME280;61365;52.162;4.500;2022-10-15T11:21:21;100391.44;;;14.06;99.57
72685;BME280;61365;52.162;4.500;2022-10-15T11:33:00;100382.19;;;14.26;98.58
72685;BME280;61365;52.162;4.500;2022-10-15T11:35:58;100392.97;;;14.53;98.34
72685;BME280;61365;52.162;4.500;2022-10-15T11:41:47;100394.81;;;14.87;95.78
72685;BME280;61365;52.162;4.500;2022-10-15T11:44:26;100391.19;;;14.91;95.19
72685;BME280;61365;52.162;4.500;2022-10-15T11:56:27;100386.91;;;15.19;93.53
72685;BME280;61365;52.162;4.500;2022-10-15T11:59:13;100392.03;;;15.25;93.02
72685;BME280;61365;52.162;4.500;2022-10-15T12:01:42;100389.16;;;15.34;92.78
72685;BME280;61365;52.162;4.500;2022-10-15T12:07:03;100387.75;;;15.21;92.95
72685;BME280;61365;52.162;4.500;2022-10-15T12:09:41;100391.13;;;15.26;92.97
72685;BME280;61365;52.162;4.500;2022-10-15T12:13:07;100391.06;;;15.29;93.25
72685;BME280;61365;52.162;4.500;2022-10-15T12:18:36;100399.19;;;15.21;93.46
72685;BME280;61365;52.162;4.500;2022-10-15T12:21:31;100394.47;;;15.32;92.19
72685;BME280;61365;52.162;4.500;2022-10-15T12:24:02;100400.72;;;15.30;91.94
72685;BME280;61365;52.162;4.500;2022-10-15T12:26:35;100402.16;;;15.42;92.23
72685;BME280;61365;52.162;4.500;2022-10-15T12:29:19;100389.44;;;15.55;91.35
72685;BME280;61365;52.162;4.500;2022-10-15T12:31:51;100387.72;;;15.54;91.24
72685;BME280;61365;52.162;4.500;2022-10-15T12:37:00;100378.09;;;16.11;88.92
72685;BME280;61365;52.162;4.500;2022-10-15T12:39:31;100384.38;;;16.35;88.59
72685;BME280;61365;52.162;4.500;2022-10-15T12:41:58;100384.53;;;16.58;86.73
72685;BME280;61365;52.162;4.500;2022-10-15T12:46:55;100381.28;;;16.23;86.79
72685;BME280;61365;52.162;4.500;2022-10-15T12:51:57;100380.84;;;16.35;84.93
72685;BME280;61365;52.162;4.500;2022-10-15T12:59:58;100403.84;;;16.61;82.60
72685;BME280;61365;52.162;4.500;2022-10-15T13:02:36;100400.13;;;16.67;81.80
72685;BME280;61365;52.162;4.500;2022-10-15T13:05:23;100399.97;;;16.45;81.70
72685;BME280;61365;52.162;4.500;2022-10-15T13:07:52;100410.81;;;16.37;81.87
72685;BME280;61365;52.162;4.500;2022-10-15T13:10:29;100417.44;;;16.77;80.44
72685;BME280;61365;52.162;4.500;2022-10-15T13:13:09;100420.00;;;16.25;82.31
72685;BME280;61365;52.162;4.500;2022-10-15T13:15:40;100420.13;;;16.49;80.15
72685;BME280;61365;52.162;4.500;2022-10-15T13:18:10;100429.75;;;16.78;78.11
72685;BME280;61365;52.162;4.500;2022-10-15T13:20:39;100421.13;;;16.73;78.28
72685;BME280;61365;52.162;4.500;2022-10-15T13:23:21;100433.59;;;16.70;78.86
72685;BME280;61365;52.162;4.500;2022-10-15T13:25:51;100439.34;;;16.56;78.31
72685;BME280;61365;52.162;4.500;2022-10-15T13:28:36;100435.41;;;16.67;76.49
72685;BME280;61365;52.162;4.500;2022-10-15T13:33:50;100440.19;;;16.29;79.04
72685;BME280;61365;52.162;4.500;2022-10-15T13:36:21;100438.88;;;16.14;79.62
72685;BME280;61365;52.162;4.500;2022-10-15T13:38:59;100434.91;;;16.28;78.99
72685;BME280;61365;52.162;4.500;2022-10-15T13:41:34;100435.47;;;16.39;78.26
72685;BME280;61365;52.162;4.500;2022-10-15T13:44:03;100439.44;;;16.24;79.02
72685;BME280;61365;52.162;4.500;2022-10-15T13:46:32;100435.88;;;16.27;79.26
72685;BME280;61365;52.162;4.500;2022-10-15T13:49:08;100433.09;;;16.30;77.90
72685;BME280;61365;52.162;4.500;2022-10-15T13:51:40;100445.56;;;16.26;79.47
72685;BME280;61365;52.162;4.500;2022-10-15T13:54:13;100445.38;;;16.32;79.43
72685;BME280;61365;52.162;4.500;2022-10-15T13:56:44;100448.22;;;16.26;80.63
72685;BME280;61365;52.162;4.500;2022-10-15T13:59:21;100453.75;;;16.47;78.86
72685;BME280;61365;52.162;4.500;2022-10-15T14:01:52;100448.69;;;16.39;78.85
72685;BME280;61365;52.162;4.500;2022-10-15T14:04:27;100446.47;;;16.54;78.36
72685;BME280;61365;52.162;4.500;2022-10-15T14:07:22;100457.16;;;16.22;79.38
72685;BME280;61365;52.162;4.500;2022-10-15T14:09:52;100458.91;;;16.23;79.70
72685;BME280;61365;52.162;4.500;2022-10-15T14:12:18;100462.63;;;16.16;78.95
72685;BME280;61365;52.162;4.500;2022-10-15T14:14:45;100453.84;;;16.15;77.91
72685;BME280;61365;52.162;4.500;2022-10-15T14:17:22;100458.16;;;16.18;75.78
72685;BME280;61365;52.162;4.500;2022-10-15T14:20:03;100466.25;;;16.42;72.75
72685;BME280;61365;52.162;4.500;2022-10-15T14:22:31;100459.81;;;16.22;72.50
72685;BME280;61365;52.162;4.500;2022-10-15T14:24:58;100467.00;;;16.18;73.55
72685;BME280;61365;52.162;4.500;2022-10-15T14:27:25;100466.84;;;16.23;74.72
72685;BME280;61365;52.162;4.500;2022-10-15T14:29:55;100468.75;;;16.18;73.36
72685;BME280;61365;52.162;4.500;2022-10-15T14:32:44;100473.97;;;16.21;73.16
72685;BME280;61365;52.162;4.500;2022-10-15T14:35:42;100475.84;;;16.17;74.62
72685;BME280;61365;52.162;4.500;2022-10-15T14:40:35;100482.50;;;16.01;74.41
72685;BME280;61365;52.162;4.500;2022-10-15T14:43:14;100481.47;;;16.06;71.94
72685;BME280;61365;52.162;4.500;2022-10-15T14:48:21;100500.97;;;16.02;73.37
72685;BME280;61365;52.162;4.500;2022-10-15T14:51:04;100490.25;;;16.07;73.34
72685;BME280;61365;52.162;4.500;2022-10-15T14:53:35;100489.66;;;15.97;74.41
72685;BME280;61365;52.162;4.500;2022-10-15T14:56:14;100493.28;;;15.95;74.47
72685;BME280;61365;52.162;4.500;2022-10-15T14:58:50;100492.97;;;15.72;75.47
72685;BME280;61365;52.162;4.500;2022-10-15T15:01:21;100498.19;;;15.75;74.98
72685;BME280;61365;52.162;4.500;2022-10-15T15:03:52;100493.97;;;15.68;75.17